createdAt,value
2023-05-10T00:02:17.383Z,14.90
2023-05-10T00:04:45.331Z,14.90
2023-05-10T00:07:14.534Z,14.90
2023-05-10T00:09:42.374Z,14.90
2023-05-10T00:12:10.232Z,14.80
2023-05-10T00:14:38.104Z,14.90
2023-05-10T00:17:06.053Z,14.80
2023-05-10T00:19:33.897Z,14.90
2023-05-10T00:22:02.499Z,14.80
2023-05-10T00:24:31.740Z,14.80
2023-05-10T00:26:59.579Z,15.00
2023-05-10T00:29:28.962Z,14.80
2023-05-10T00:31:57.186Z,14.80
2023-05-10T00:34:25.558Z,14.80
2023-05-10T00:36:53.408Z,14.80
2023-05-10T00:39:21.248Z,14.80
2023-05-10T00:41:50.450Z,14.80
2023-05-10T00:44:19.343Z,14.80
2023-05-10T00:46:47.479Z,14.80
2023-05-10T00:49:15.513Z,14.80
2023-05-10T00:51:43.844Z,14.70
2023-05-10T00:54:13.260Z,14.90
2023-05-10T00:56:42.190Z,14.70
2023-05-10T00:59:11.945Z,14.60
2023-05-10T01:01:40.149Z,14.60
2023-05-10T01:04:08.269Z,14.60
2023-05-10T01:06:36.117Z,14.50
2023-05-10T01:09:03.956Z,14.50
2023-05-10T01:11:32.236Z,14.50
2023-05-10T01:14:00.414Z,14.50
2023-05-10T01:16:31.736Z,14.50
2023-05-10T01:18:59.815Z,14.50
2023-05-10T01:21:35.060Z,14.50
2023-05-10T01:24:27.391Z,14.50
2023-05-10T01:27:12.358Z,14.30
2023-05-10T01:30:21.693Z,14.40
2023-05-10T01:32:57.979Z,14.50
2023-05-10T01:35:36.256Z,14.60
2023-05-10T01:38:13.928Z,14.40
2023-05-10T01:40:48.265Z,14.40
2023-05-10T01:43:23.407Z,14.40
2023-05-10T01:46:01.535Z,14.40
2023-05-10T01:48:32.371Z,14.30
2023-05-10T01:51:01.062Z,14.30
2023-05-10T01:53:29.999Z,14.30
2023-05-10T01:55:59.239Z,14.30
2023-05-10T01:58:31.289Z,14.30
2023-05-10T02:01:01.731Z,14.20
2023-05-10T02:03:33.315Z,14.30
2023-05-10T02:06:01.652Z,14.20
2023-05-10T02:08:29.958Z,14.20
2023-05-10T02:10:59.592Z,14.20
2023-05-10T02:13:29.317Z,14.20
2023-05-10T02:15:58.920Z,14.20
2023-05-10T02:18:29.108Z,14.20
2023-05-10T02:20:59.894Z,14.40
2023-05-10T02:23:28.483Z,14.10
2023-05-10T02:25:58.230Z,14.10
2023-05-10T02:28:28.017Z,14.10
2023-05-10T02:30:57.187Z,14.10
2023-05-10T02:33:25.891Z,14.00
2023-05-10T02:35:54.697Z,14.00
2023-05-10T02:38:26.146Z,14.00
2023-05-10T02:40:55.707Z,14.00
2023-05-10T02:43:26.360Z,14.00
2023-05-10T02:45:54.475Z,14.00
2023-05-10T02:48:22.439Z,13.90
2023-05-10T02:50:54.277Z,13.90
2023-05-10T02:53:32.204Z,13.90
2023-05-10T02:56:04.945Z,13.80
2023-05-10T02:58:32.804Z,13.80
2023-05-10T03:01:01.433Z,13.80
2023-05-10T03:03:29.292Z,13.70
2023-05-10T03:05:57.623Z,13.70
2023-05-10T03:08:30.171Z,13.70
2023-05-10T03:11:14.016Z,13.70
2023-05-10T03:13:50.808Z,13.70
2023-05-10T03:16:26.300Z,13.70
2023-05-10T03:19:03.549Z,13.70
2023-05-10T03:21:33.487Z,13.70
2023-05-10T03:24:09.408Z,13.70
2023-05-10T03:26:38.903Z,13.70
2023-05-10T03:29:08.603Z,13.70
2023-05-10T03:31:36.600Z,13.70
2023-05-10T03:34:04.455Z,13.70
2023-05-10T03:36:32.374Z,13.70
2023-05-10T03:39:00.228Z,13.70
2023-05-10T03:41:29.552Z,13.80
2023-05-10T03:43:57.443Z,13.60
2023-05-10T03:46:25.295Z,13.70
2023-05-10T03:48:53.117Z,13.70
2023-05-10T03:51:21.318Z,14.00
2023-05-10T03:53:49.161Z,13.70
2023-05-10T03:56:16.970Z,14.30
2023-05-10T03:58:46.138Z,13.60
2023-05-10T04:01:14.068Z,13.60
2023-05-10T04:03:42.059Z,13.60
2023-05-10T04:06:12.623Z,13.60
2023-05-10T04:08:40.500Z,13.60
2023-05-10T04:11:09.413Z,13.60
2023-05-10T04:13:37.564Z,13.50
2023-05-10T04:16:07.410Z,13.50
2023-05-10T04:18:35.511Z,13.50
2023-05-10T04:21:03.612Z,13.60
2023-05-10T04:23:31.432Z,13.50
2023-05-10T04:26:02.837Z,13.50
2023-05-10T04:28:30.645Z,13.50
2023-05-10T04:31:03.620Z,13.50
2023-05-10T04:33:33.438Z,13.50
2023-05-10T04:36:01.662Z,13.60
2023-05-10T04:38:29.664Z,13.50
2023-05-10T04:41:06.095Z,13.60
2023-05-10T04:43:33.979Z,13.60
2023-05-10T04:46:01.943Z,13.60
2023-05-10T04:48:29.909Z,13.60
2023-05-10T04:50:59.117Z,13.60
2023-05-10T04:53:27.090Z,13.60
2023-05-10T04:55:54.926Z,13.60
2023-05-10T04:58:23.034Z,13.60
2023-05-10T05:00:51.220Z,13.60
2023-05-10T05:03:19.160Z,13.60
2023-05-10T05:05:47.105Z,13.60
2023-05-10T05:08:16.599Z,13.60
2023-05-10T05:10:44.475Z,13.70
2023-05-10T05:13:14.381Z,13.70
2023-05-10T05:15:42.241Z,13.70
2023-05-10T05:18:10.161Z,13.70
2023-05-10T05:20:38.001Z,13.80
2023-05-10T05:23:05.846Z,13.80
2023-05-10T05:25:35.040Z,13.80
2023-05-10T05:28:02.899Z,13.80
2023-05-10T05:30:30.747Z,13.90
2023-05-10T05:32:58.649Z,13.80
2023-05-10T05:35:27.031Z,13.80
2023-05-10T05:37:54.848Z,13.90
2023-05-10T05:40:22.673Z,13.90
2023-05-10T05:42:51.874Z,13.90
2023-05-10T05:45:20.117Z,13.90
2023-05-10T05:47:48.228Z,13.90
2023-05-10T05:50:16.138Z,13.80
2023-05-10T05:52:43.982Z,13.70
2023-05-10T05:55:12.776Z,13.70
2023-05-10T05:57:40.634Z,13.70
2023-05-10T06:00:11.214Z,13.70
2023-05-10T06:02:39.157Z,13.60
2023-05-10T06:05:08.607Z,13.60
2023-05-10T06:07:36.473Z,13.50
2023-05-10T06:10:04.746Z,13.50
2023-05-10T06:12:32.576Z,13.50
2023-05-10T06:15:00.427Z,13.50
2023-05-10T06:17:29.687Z,13.50
2023-05-10T06:19:57.681Z,13.50
2023-05-10T06:22:25.562Z,13.50
2023-05-10T06:24:53.391Z,13.50
2023-05-10T06:27:21.224Z,13.50
2023-05-10T06:29:52.129Z,13.50
2023-05-10T06:32:22.186Z,13.50
2023-05-10T06:34:51.357Z,13.50
2023-05-10T06:37:19.263Z,13.50
2023-05-10T06:39:47.163Z,13.50
2023-05-10T06:42:14.994Z,13.50
2023-05-10T06:44:42.817Z,13.50
2023-05-10T06:47:10.716Z,13.60
2023-05-10T06:49:38.819Z,13.60
2023-05-10T06:52:08.102Z,13.70
2023-05-10T06:54:35.919Z,13.70
2023-05-10T06:57:10.759Z,13.70
2023-05-10T06:59:44.186Z,13.70
2023-05-10T07:02:12.262Z,13.80
2023-05-10T07:04:40.401Z,13.80
2023-05-10T07:07:10.260Z,13.90
2023-05-10T07:09:38.077Z,13.90
2023-05-10T07:12:07.242Z,14.00
2023-05-10T07:14:35.904Z,14.10
2023-05-10T07:17:03.808Z,14.20
2023-05-10T07:19:33.455Z,14.20
2023-05-10T07:22:01.280Z,14.30
2023-05-10T07:24:30.817Z,14.20
2023-05-10T07:26:58.690Z,14.20
2023-05-10T07:29:26.830Z,14.10
2023-05-10T07:31:56.491Z,14.10
2023-05-10T07:34:25.969Z,14.10
2023-05-10T07:36:53.888Z,14.20
2023-05-10T07:39:27.853Z,14.20
2023-05-10T07:41:57.919Z,14.20
2023-05-10T07:44:25.804Z,14.20
2023-05-10T07:46:53.746Z,14.20
2023-05-10T07:49:21.611Z,14.30
2023-05-10T07:51:49.689Z,14.30
2023-05-10T07:54:18.147Z,14.30
2023-05-10T07:56:48.034Z,14.30
2023-05-10T07:59:19.503Z,14.40
2023-05-10T08:01:47.592Z,14.80
2023-05-10T08:04:15.599Z,14.50
2023-05-10T08:06:43.442Z,14.50
2023-05-10T08:09:11.825Z,14.60
2023-05-10T08:11:39.692Z,14.70
2023-05-10T08:14:07.525Z,14.70
2023-05-10T08:16:36.735Z,14.80
2023-05-10T08:19:04.650Z,14.90
2023-05-10T08:21:32.606Z,15.10
2023-05-10T08:24:00.433Z,15.40
2023-05-10T08:26:28.375Z,15.70
2023-05-10T08:28:56.186Z,15.70
2023-05-10T08:31:24.057Z,16.00
2023-05-10T08:33:53.615Z,16.30
2023-05-10T08:36:22.778Z,16.50
2023-05-10T08:38:52.565Z,16.80
2023-05-10T08:41:21.979Z,16.80
2023-05-10T08:43:50.515Z,16.60
2023-05-10T08:46:19.971Z,16.90
2023-05-10T08:48:49.141Z,17.10
2023-05-10T08:51:20.913Z,17.30
2023-05-10T08:53:49.064Z,17.40
2023-05-10T08:56:18.774Z,17.50
2023-05-10T08:58:46.908Z,17.80
2023-05-10T09:01:15.721Z,17.80
2023-05-10T09:03:43.806Z,17.80
2023-05-10T09:06:14.040Z,18.00
2023-05-10T09:08:43.931Z,17.90
2023-05-10T09:11:12.538Z,17.80
2023-05-10T09:13:40.795Z,17.80
2023-05-10T09:16:20.450Z,17.80
2023-05-10T09:18:50.321Z,17.70
2023-05-10T09:21:18.325Z,18.10
2023-05-10T09:23:48.943Z,17.70
2023-05-10T09:26:17.137Z,18.40
2023-05-10T09:28:55.618Z,18.10
2023-05-10T09:31:24.674Z,18.20
2023-05-10T09:33:53.342Z,18.10
2023-05-10T09:36:21.226Z,18.30
2023-05-10T09:38:52.722Z,18.20
2023-05-10T09:41:22.408Z,18.10
2023-05-10T09:43:50.587Z,18.10
2023-05-10T09:46:18.939Z,18.10
2023-05-10T09:48:48.524Z,17.90
2023-05-10T09:51:22.774Z,17.90
2023-05-10T09:54:11.452Z,17.90
2023-05-10T09:56:41.203Z,17.90
2023-05-10T09:59:12.855Z,18.10
2023-05-10T10:01:43.028Z,18.30
2023-05-10T10:04:11.969Z,18.40
2023-05-10T10:06:40.385Z,18.50
2023-05-10T10:09:10.594Z,19.00
2023-05-10T10:11:40.712Z,19.30
2023-05-10T10:14:08.630Z,19.40
2023-05-10T10:16:37.595Z,19.30
2023-05-10T10:19:10.009Z,19.20
2023-05-10T10:21:37.920Z,19.30
2023-05-10T10:24:06.696Z,19.30
2023-05-10T10:26:39.279Z,19.60
2023-05-10T10:29:18.085Z,19.80
2023-05-10T10:31:51.665Z,19.90
2023-05-10T10:34:27.830Z,20.00
2023-05-10T10:36:57.211Z,20.10
2023-05-10T10:39:26.903Z,20.40
2023-05-10T10:41:57.685Z,20.60
2023-05-10T10:44:42.565Z,20.90
2023-05-10T10:47:27.723Z,21.20
2023-05-10T10:50:06.615Z,21.40
2023-05-10T10:52:35.572Z,21.60
2023-05-10T10:55:06.182Z,21.60
2023-05-10T10:57:44.486Z,21.70
2023-05-10T11:00:24.518Z,21.80
2023-05-10T11:02:53.939Z,21.80
2023-05-10T11:05:43.294Z,21.80
2023-05-10T11:08:17.089Z,21.90
2023-05-10T11:10:56.058Z,21.80
2023-05-10T11:13:32.599Z,21.50
2023-05-10T11:16:01.118Z,21.10
2023-05-10T11:18:30.731Z,20.90
2023-05-10T11:21:00.723Z,20.80
2023-05-10T11:23:32.858Z,20.90
2023-05-10T11:26:02.062Z,21.20
2023-05-10T11:28:31.371Z,21.70
2023-05-10T11:30:59.639Z,22.00
2023-05-10T11:33:27.589Z,22.20
2023-05-10T11:35:55.439Z,22.20
2023-05-10T11:38:23.294Z,22.30
2023-05-10T11:40:54.904Z,21.80
2023-05-10T11:43:29.125Z,21.70
2023-05-10T11:45:58.535Z,21.70
2023-05-10T11:48:26.439Z,21.30
2023-05-10T11:50:57.952Z,21.20
2023-05-10T11:53:27.757Z,21.30
2023-05-10T11:55:55.645Z,21.70
2023-05-10T11:58:24.269Z,21.90
2023-05-10T12:00:52.438Z,22.20
2023-05-10T12:03:21.829Z,22.20
2023-05-10T12:05:49.846Z,22.10
2023-05-10T12:08:21.794Z,22.00
2023-05-10T12:10:50.414Z,21.90
2023-05-10T12:13:19.672Z,21.70
2023-05-10T12:15:47.599Z,21.50
2023-05-10T12:18:16.384Z,21.60
2023-05-10T12:20:45.805Z,21.70
2023-05-10T12:23:16.098Z,21.80
2023-05-10T12:25:44.222Z,21.70
2023-05-10T12:28:12.091Z,21.70
2023-05-10T12:30:40.840Z,21.50
2023-05-10T12:33:13.556Z,21.30
2023-05-10T12:35:51.303Z,21.10
2023-05-10T12:38:29.717Z,21.10
2023-05-10T12:40:57.913Z,20.90
2023-05-10T12:43:25.893Z,21.00
2023-05-10T12:45:53.841Z,20.80
2023-05-10T12:48:21.795Z,20.90
2023-05-10T12:50:51.247Z,21.20
2023-05-10T12:53:19.314Z,21.30
2023-05-10T12:55:47.158Z,21.60
2023-05-10T12:58:31.489Z,21.70
2023-05-10T13:01:02.974Z,21.80
2023-05-10T13:03:31.406Z,21.90
2023-05-10T13:06:00.658Z,21.90
2023-05-10T13:08:30.655Z,21.90
2023-05-10T13:10:58.571Z,21.80
2023-05-10T13:13:27.132Z,21.40
2023-05-10T13:15:55.031Z,21.10
2023-05-10T13:18:22.940Z,20.80
2023-05-10T13:20:51.591Z,20.80
2023-05-10T13:23:21.023Z,20.80
2023-05-10T13:25:48.879Z,20.80
2023-05-10T13:28:16.780Z,20.70
2023-05-10T13:30:44.603Z,21.00
2023-05-10T13:33:12.499Z,21.10
2023-05-10T13:35:40.455Z,21.00
2023-05-10T13:38:08.992Z,20.90
2023-05-10T13:40:38.279Z,20.70
2023-05-10T13:43:06.285Z,20.00
2023-05-10T13:45:34.174Z,20.20
2023-05-10T13:48:02.087Z,20.20
2023-05-10T13:50:29.966Z,20.20
2023-05-10T13:52:57.840Z,20.20
2023-05-10T13:55:25.817Z,20.50
2023-05-10T13:57:55.018Z,20.40
2023-05-10T14:00:22.974Z,20.50
2023-05-10T14:02:51.437Z,20.60
2023-05-10T14:05:23.847Z,20.80
2023-05-10T14:07:53.626Z,20.80
2023-05-10T14:10:21.501Z,20.60
2023-05-10T14:12:49.347Z,20.40
2023-05-10T14:15:19.160Z,20.30
2023-05-10T14:17:47.206Z,20.50
2023-05-10T14:20:15.111Z,20.70
2023-05-10T14:22:42.952Z,20.60
2023-05-10T14:25:11.390Z,20.70
2023-05-10T14:27:39.320Z,20.60
2023-05-10T14:30:08.571Z,20.50
2023-05-10T14:32:38.661Z,20.50
2023-05-10T14:35:09.003Z,20.40
2023-05-10T14:37:38.666Z,20.10
2023-05-10T14:40:08.160Z,20.00
2023-05-10T14:42:36.069Z,19.90
2023-05-10T14:45:04.223Z,19.80
2023-05-10T14:47:32.196Z,19.70
2023-05-10T14:50:01.448Z,19.70
2023-05-10T14:52:29.463Z,19.70
2023-05-10T14:54:58.053Z,19.90
2023-05-10T14:57:25.892Z,19.90
2023-05-10T14:59:53.785Z,20.20
2023-05-10T15:02:22.420Z,20.10
2023-05-10T15:04:50.858Z,20.10
2023-05-10T15:07:22.792Z,20.00
2023-05-10T15:09:50.887Z,19.90
2023-05-10T15:12:18.721Z,19.80
2023-05-10T15:14:46.607Z,19.70
2023-05-10T15:17:14.577Z,19.50
2023-05-10T15:19:42.419Z,19.40
2023-05-10T15:22:10.335Z,19.30
2023-05-10T15:24:39.619Z,19.10
2023-05-10T15:27:07.492Z,19.10
2023-05-10T15:29:36.567Z,19.00
2023-05-10T15:32:04.723Z,19.00
2023-05-10T15:34:34.886Z,18.90
2023-05-10T15:37:03.767Z,19.00
2023-05-10T15:39:31.572Z,19.10
2023-05-10T15:42:02.221Z,19.20
2023-05-10T15:44:30.061Z,19.30
2023-05-10T15:46:58.092Z,19.40
2023-05-10T15:49:26.645Z,19.40
2023-05-10T15:51:54.526Z,19.40
2023-05-10T15:54:22.478Z,19.40
2023-05-10T15:56:50.321Z,19.50
2023-05-10T15:59:19.512Z,19.60
2023-05-10T16:01:47.536Z,19.70
2023-05-10T16:04:15.373Z,19.70
2023-05-10T16:06:43.181Z,19.70
2023-05-10T16:09:11.473Z,19.80
2023-05-10T16:11:39.389Z,20.00
2023-05-10T16:14:07.514Z,20.00
2023-05-10T16:16:36.876Z,19.90
2023-05-10T16:19:05.123Z,20.10
2023-05-10T16:21:33.420Z,19.80
2023-05-10T16:24:01.695Z,19.70
2023-05-10T16:26:29.600Z,19.70
2023-05-10T16:28:57.460Z,19.70
2023-05-10T16:31:28.306Z,19.70
2023-05-10T16:33:57.590Z,19.70
2023-05-10T16:36:25.508Z,19.70
2023-05-10T16:38:53.405Z,19.70
2023-05-10T16:41:21.248Z,19.70
2023-05-10T16:43:49.253Z,19.80
2023-05-10T16:46:17.314Z,19.50
2023-05-10T16:48:45.280Z,19.60
2023-05-10T16:51:15.464Z,19.40
2023-05-10T16:53:43.350Z,19.40
2023-05-10T16:56:11.491Z,19.30
2023-05-10T16:58:39.317Z,19.20
2023-05-10T17:01:07.286Z,19.10
2023-05-10T17:03:35.583Z,19.10
2023-05-10T17:06:03.900Z,18.90
2023-05-10T17:08:33.340Z,18.90
2023-05-10T17:11:03.790Z,18.70
2023-05-10T17:13:32.775Z,18.70
2023-05-10T17:16:03.500Z,18.70
2023-05-10T17:18:31.702Z,18.60
2023-05-10T17:20:59.645Z,18.50
2023-05-10T17:23:27.884Z,18.50
2023-05-10T17:25:58.545Z,18.40
2023-05-10T17:28:27.418Z,18.30
2023-05-10T17:30:58.544Z,18.20
2023-05-10T17:33:26.470Z,18.00
2023-05-10T17:35:54.356Z,17.90
2023-05-10T17:38:22.202Z,17.70
2023-05-10T17:40:50.013Z,17.60
2023-05-10T17:43:19.278Z,17.40
2023-05-10T17:45:49.310Z,17.30
2023-05-10T17:48:17.214Z,17.20
2023-05-10T17:50:45.085Z,17.10
2023-05-10T17:53:12.985Z,17.00
2023-05-10T17:55:41.883Z,16.80
2023-05-10T17:58:11.529Z,16.70
2023-05-10T18:00:41.201Z,16.70
2023-05-10T18:03:09.215Z,16.60
2023-05-10T18:05:38.054Z,16.50
2023-05-10T18:08:07.187Z,16.50
2023-05-10T18:10:35.037Z,16.40
2023-05-10T18:13:06.282Z,16.40
2023-05-10T18:15:36.125Z,16.30
2023-05-10T18:18:06.020Z,16.20
2023-05-10T18:20:34.113Z,15.90
2023-05-10T18:23:02.476Z,15.70
2023-05-10T18:25:30.487Z,15.60
2023-05-10T18:27:58.445Z,15.30
2023-05-10T18:30:26.452Z,15.20
2023-05-10T18:32:54.992Z,15.10
2023-05-10T18:35:24.305Z,15.70
2023-05-10T18:37:52.541Z,14.90
2023-05-10T18:40:20.900Z,14.90
2023-05-10T18:42:50.005Z,14.80
2023-05-10T18:45:18.275Z,14.80
2023-05-10T18:47:46.379Z,14.80
2023-05-10T18:50:14.250Z,14.70
2023-05-10T18:52:43.565Z,14.80
2023-05-10T18:55:11.824Z,14.50
2023-05-10T18:57:41.586Z,14.50
2023-05-10T19:00:11.279Z,14.50
2023-05-10T19:02:39.237Z,14.40
2023-05-10T19:05:08.118Z,14.40
2023-05-10T19:07:35.940Z,14.30
2023-05-10T19:10:05.686Z,14.30
2023-05-10T19:12:33.793Z,14.30
2023-05-10T19:15:01.651Z,14.20
2023-05-10T19:17:31.842Z,14.20
2023-05-10T19:20:00.031Z,14.30
2023-05-10T19:22:44.926Z,14.20
2023-05-10T19:25:19.299Z,14.20
2023-05-10T19:27:47.565Z,14.20
2023-05-10T19:30:15.652Z,14.10
2023-05-10T19:32:44.393Z,14.10
2023-05-10T19:35:13.200Z,14.10
2023-05-10T19:37:45.839Z,14.70
2023-05-10T19:40:15.552Z,14.10
2023-05-10T19:42:44.795Z,14.10
2023-05-10T19:45:15.525Z,14.70
2023-05-10T19:47:43.764Z,14.10
2023-05-10T19:50:12.807Z,14.10
2023-05-10T19:52:41.157Z,14.60
2023-05-10T19:55:09.721Z,14.20
2023-05-10T19:57:37.636Z,14.10
2023-05-10T20:00:08.319Z,14.10
2023-05-10T20:02:36.188Z,14.10
2023-05-10T20:05:04.020Z,14.00
2023-05-10T20:07:32.014Z,14.30
2023-05-10T20:09:59.956Z,14.00
2023-05-10T20:12:28.194Z,14.00
2023-05-10T20:14:56.094Z,14.00
2023-05-10T20:17:25.310Z,14.00
2023-05-10T20:19:53.175Z,14.00
2023-05-10T20:22:21.032Z,13.90
2023-05-10T20:24:48.838Z,13.90
2023-05-10T20:27:16.952Z,13.90
2023-05-10T20:29:44.830Z,13.90
2023-05-10T20:32:12.746Z,14.10
2023-05-10T20:34:41.979Z,13.90
2023-05-10T20:37:09.869Z,13.80
2023-05-10T20:39:37.710Z,13.80
2023-05-10T20:42:05.880Z,13.80
2023-05-10T20:44:33.723Z,13.80
2023-05-10T20:47:01.715Z,13.80
2023-05-10T20:49:29.677Z,13.80
2023-05-10T20:51:58.875Z,13.80
2023-05-10T20:54:27.139Z,13.80
2023-05-10T20:56:54.973Z,13.70
2023-05-10T20:59:22.836Z,13.70
2023-05-10T21:01:50.682Z,13.70
2023-05-10T21:04:18.573Z,13.70
2023-05-10T21:06:46.763Z,13.70
2023-05-10T21:09:16.948Z,13.70
2023-05-10T21:11:44.834Z,13.70
2023-05-10T21:14:12.692Z,13.70
2023-05-10T21:16:40.655Z,14.40
2023-05-10T21:19:08.708Z,13.70
2023-05-10T21:21:36.659Z,13.70
2023-05-10T21:24:05.007Z,13.70
2023-05-10T21:26:34.185Z,13.70
2023-05-10T21:29:02.512Z,13.70
2023-05-10T21:31:31.147Z,13.70
2023-05-10T21:33:59.155Z,13.60
2023-05-10T21:36:27.012Z,13.60
2023-05-10T21:38:54.818Z,13.60
2023-05-10T21:41:22.759Z,13.60
2023-05-10T21:43:51.962Z,13.60
2023-05-10T21:46:19.871Z,13.60
2023-05-10T21:48:47.886Z,13.60
2023-05-10T21:51:15.886Z,14.10
2023-05-10T21:53:43.713Z,13.60
2023-05-10T21:56:11.625Z,13.50
2023-05-10T21:58:39.507Z,13.50
2023-05-10T22:01:08.789Z,13.50
2023-05-10T22:03:36.744Z,13.50
2023-05-10T22:06:05.085Z,13.50
2023-05-10T22:08:32.973Z,13.40
2023-05-10T22:11:00.882Z,13.40
2023-05-10T22:13:28.692Z,13.40
2023-05-10T22:15:56.517Z,13.30
2023-05-10T22:18:25.764Z,13.40
2023-05-10T22:20:53.677Z,13.40
2023-05-10T22:23:21.531Z,13.40
2023-05-10T22:25:49.371Z,13.30
2023-05-10T22:28:17.214Z,13.30
2023-05-10T22:30:45.168Z,13.50
2023-05-10T22:33:13.049Z,13.30
2023-05-10T22:35:42.266Z,13.30
2023-05-10T22:38:10.078Z,13.30
2023-05-10T22:40:37.922Z,13.30
2023-05-10T22:43:05.792Z,13.30
2023-05-10T22:45:33.635Z,13.30
2023-05-10T22:48:01.600Z,13.30
2023-05-10T22:50:31.029Z,13.30
2023-05-10T22:53:00.198Z,13.30
2023-05-10T22:55:28.144Z,13.50
2023-05-10T22:57:56.740Z,13.30
2023-05-10T23:00:24.790Z,13.30
2023-05-10T23:02:52.891Z,13.30
2023-05-10T23:05:20.785Z,13.30
2023-05-10T23:07:53.512Z,13.30
2023-05-10T23:10:22.788Z,13.30
2023-05-10T23:12:50.623Z,13.30
2023-05-10T23:15:18.458Z,13.40
2023-05-10T23:17:46.445Z,13.40
2023-05-10T23:20:14.581Z,13.40
2023-05-10T23:22:42.510Z,13.30
2023-05-10T23:25:11.718Z,13.30
2023-05-10T23:27:40.990Z,13.30
2023-05-10T23:30:10.090Z,13.30
2023-05-10T23:32:38.065Z,13.30
2023-05-10T23:35:06.734Z,13.30
2023-05-10T23:37:34.579Z,13.30
2023-05-10T23:40:03.025Z,13.30
2023-05-10T23:42:30.876Z,13.30
2023-05-10T23:45:00.552Z,13.20
2023-05-10T23:47:28.398Z,13.20
2023-05-10T23:49:56.324Z,13.20
2023-05-10T23:52:25.093Z,13.20
2023-05-10T23:54:53.123Z,13.20
2023-05-10T23:57:21.439Z,13.20
2023-05-10T23:59:49.395Z,13.20
